Time;durP1;ratioP1;P1;durP2;ratioP2;P2;SDS_P1;SDS_P2;PMS_P1;PMS_P2;Temp;Humidity;BMP_temperature;BMP_pressure;BME280_temperature;BME280_humidity;BME280_pressure;Samples;Min_cycle;Max_cycle;Signal;HPM_P1;HPM_P2
2021/10/10 00:01:36;;;;;;;16.17;10.73;;;;;;;;;;5004662;28;20066;-62
2021/10/10 00:04:20;;;;;;;15.30;10.27;;;;;;;;;;4997612;28;20065;-63
2021/10/10 00:07:03;;;;;;;15.68;10.50;;;;;;;;;;5005821;28;21007;-61
2021/10/10 00:09:47;;;;;;;20.25;10.27;;;;;;;;;;5002714;28;20072;-63
2021/10/10 00:12:32;;;;;;;18.92;11.60;;;;;;;;;;5009357;28;20064;-62
2021/10/10 00:15:16;;;;;;;17.02;10.30;;;;;;;;;;4999384;28;20129;-62
2021/10/10 00:17:59;;;;;;;19.10;12.27;;;;;;;;;;5009835;28;20119;-61
2021/10/10 00:20:44;;;;;;;17.15;10.65;;;;;;;;;;4999865;28;20036;-63
2021/10/10 00:23:28;;;;;;;15.93;9.48;;;;;;;;;;4993096;28;20120;-68
2021/10/10 00:26:12;;;;;;;16.77;10.88;;;;;;;;;;4994874;28;20056;-68
2021/10/10 00:28:56;;;;;;;15.73;9.93;;;;;;;;;;5001783;28;20623;-67
2021/10/10 00:31:40;;;;;;;13.75;9.85;;;;;;;;;;5001564;28;20126;-67
2021/10/10 00:34:24;;;;;;;15.18;9.82;;;;;;;;;;5000470;28;20087;-69
2021/10/10 00:37:08;;;;;;;15.13;10.18;;;;;;;;;;4998951;28;20033;-68
2021/10/10 00:39:52;;;;;;;16.60;11.05;;;;;;;;;;5009330;28;20404;-69
2021/10/10 00:42:36;;;;;;;13.98;9.05;;;;;;;;;;5000356;28;20065;-70
2021/10/10 00:45:20;;;;;;;15.02;9.85;;;;;;;;;;5000714;28;20488;-69
2021/10/10 00:48:04;;;;;;;16.77;10.35;;;;;;;;;;5000383;28;20218;-67
2021/10/10 00:50:48;;;;;;;17.70;9.60;;;;;;;;;;4997352;28;20084;-67
2021/10/10 00:53:35;;;;;;;18.55;9.73;;;;;;;;;;5004791;28;20037;-69
2021/10/10 00:56:19;;;;;;;15.45;9.90;;;;;;;;;;4996234;28;20034;-70
2021/10/10 00:59:03;;;;;;;15.25;10.60;;;;;;;;;;5000355;28;20501;-62
2021/10/10 01:01:48;;;;;;;19.95;11.68;;;;;;;;;;5002771;28;20041;-62
2021/10/10 01:04:32;;;;;;;15.57;9.73;;;;;;;;;;5003361;28;20413;-62
2021/10/10 01:07:18;;;;;;;16.85;10.43;;;;;;;;;;5005337;28;20160;-64
2021/10/10 01:10:03;;;;;;;18.05;10.13;;;;;;;;;;4997782;28;20489;-63
2021/10/10 01:12:47;;;;;;;15.75;10.82;;;;;;;;;;5001473;28;20073;-62
2021/10/10 01:15:31;;;;;;;14.52;9.45;;;;;;;;;;4998432;28;20091;-62
2021/10/10 01:18:22;;;;;;;15.43;9.52;;;;;;;;;;5003859;28;20057;-70
2021/10/10 01:21:06;;;;;;;15.00;10.15;;;;;;;;;;5014229;28;20100;-67
2021/10/10 01:23:50;;;;;;;17.33;10.20;;;;;;;;;;5002541;28;20276;-68
2021/10/10 01:26:34;;;;;;;17.02;10.80;;;;;;;;;;4998143;28;20389;-66
2021/10/10 01:29:18;;;;;;;17.38;10.55;;;;;;;;;;5005194;28;20180;-67
2021/10/10 01:32:02;;;;;;;15.98;10.02;;;;;;;;;;5003164;28;20025;-68
2021/10/10 01:34:47;;;;;;;19.73;10.30;;;;;;;;;;5004771;28;20040;-70
2021/10/10 01:37:31;;;;;;;19.25;11.40;;;;;;;;;;5005341;28;20025;-61
2021/10/10 01:40:15;;;;;;;18.25;9.63;;;;;;;;;;5002725;28;20388;-61
2021/10/10 01:43:02;;;;;;;15.45;9.25;;;;;;;;;;4993573;28;20524;-62
2021/10/10 01:45:46;;;;;;;16.67;9.10;;;;;;;;;;5005837;28;20489;-60
2021/10/10 01:48:30;;;;;;;19.25;9.43;;;;;;;;;;4998161;28;20073;-63
2021/10/10 01:51:14;;;;;;;13.63;9.52;;;;;;;;;;5006048;28;20221;-62
2021/10/10 01:53:59;;;;;;;14.82;8.93;;;;;;;;;;4997932;28;20096;-69
2021/10/10 01:56:43;;;;;;;14.43;10.13;;;;;;;;;;5004647;28;20072;-62
2021/10/10 01:59:27;;;;;;;15.57;9.95;;;;;;;;;;4995809;28;20119;-61
2021/10/10 02:02:11;;;;;;;13.90;9.20;;;;;;;;;;4998612;28;20057;-62
2021/10/10 02:04:55;;;;;;;12.82;8.73;;;;;;;;;;5001366;28;20091;-62
2021/10/10 02:07:39;;;;;;;14.75;9.35;;;;;;;;;;5003205;28;20044;-61
2021/10/10 02:10:22;;;;;;;18.10;9.82;;;;;;;;;;4998620;28;20040;-60
2021/10/10 02:13:06;;;;;;;15.10;9.93;;;;;;;;;;5009735;28;20409;-60
2021/10/10 02:15:50;;;;;;;15.90;10.15;;;;;;;;;;5002782;28;20124;-67
2021/10/10 02:18:34;;;;;;;15.70;8.68;;;;;;;;;;5001807;28;20546;-67
2021/10/10 02:21:18;;;;;;;19.08;10.10;;;;;;;;;;4990853;28;20041;-67
2021/10/10 02:24:02;;;;;;;15.27;10.88;;;;;;;;;;5005330;28;20375;-66
2021/10/10 02:26:46;;;;;;;13.07;9.25;;;;;;;;;;5004087;28;20092;-67
2021/10/10 02:29:31;;;;;;;17.10;10.77;;;;;;;;;;5001726;28;20531;-67
2021/10/10 02:32:15;;;;;;;16.02;9.95;;;;;;;;;;4987207;28;20052;-63
2021/10/10 02:34:59;;;;;;;21.10;9.60;;;;;;;;;;4999034;28;20037;-62
2021/10/10 02:37:43;;;;;;;15.70;9.60;;;;;;;;;;5003172;28;20133;-62
2021/10/10 02:40:27;;;;;;;16.20;10.13;;;;;;;;;;4994286;28;20081;-61
2021/10/10 02:43:11;;;;;;;14.75;10.45;;;;;;;;;;5005959;28;20036;-61
2021/10/10 02:45:55;;;;;;;17.08;9.77;;;;;;;;;;5002327;28;20501;-63
2021/10/10 02:48:38;;;;;;;17.65;9.50;;;;;;;;;;5007678;28;20036;-69
2021/10/10 02:51:22;;;;;;;15.88;10.05;;;;;;;;;;5004751;28;20037;-61
2021/10/10 02:54:06;;;;;;;17.35;10.07;;;;;;;;;;5003053;28;20037;-63
2021/10/10 02:56:50;;;;;;;16.98;11.25;;;;;;;;;;5010760;28;20077;-63
2021/10/10 02:59:35;;;;;;;16.50;9.02;;;;;;;;;;5000545;28;20122;-63
2021/10/10 03:02:19;;;;;;;16.45;10.93;;;;;;;;;;5006082;28;20057;-62
2021/10/10 03:05:03;;;;;;;17.50;10.27;;;;;;;;;;5002611;28;20226;-61
2021/10/10 03:07:47;;;;;;;16.30;10.35;;;;;;;;;;5002240;28;20040;-67
2021/10/10 03:10:31;;;;;;;23.08;10.88;;;;;;;;;;5001497;28;20030;-70
2021/10/10 03:13:15;;;;;;;17.60;10.02;;;;;;;;;;5004421;28;20187;-70
2021/10/10 03:15:59;;;;;;;17.58;10.50;;;;;;;;;;5004515;28;20025;-69
2021/10/10 03:18:43;;;;;;;14.25;9.52;;;;;;;;;;5008971;28;20080;-69
2021/10/10 03:21:27;;;;;;;14.68;9.70;;;;;;;;;;5008836;28;20068;-70
2021/10/10 03:24:10;;;;;;;15.73;9.98;;;;;;;;;;5004660;28;20163;-73
2021/10/10 03:26:54;;;;;;;16.20;9.85;;;;;;;;;;5001312;28;20104;-68
2021/10/10 03:29:38;;;;;;;15.95;10.32;;;;;;;;;;5005712;28;20167;-68
2021/10/10 03:32:22;;;;;;;15.60;9.75;;;;;;;;;;5003704;28;20125;-69
2021/10/10 03:35:07;;;;;;;15.85;9.88;;;;;;;;;;5009001;28;20048;-69
2021/10/10 03:37:51;;;;;;;16.77;10.95;;;;;;;;;;5000450;28;20042;-69
2021/10/10 03:40:35;;;;;;;12.23;8.70;;;;;;;;;;4994522;28;20068;-71
2021/10/10 03:43:19;;;;;;;15.60;10.15;;;;;;;;;;5005524;28;20679;-69
2021/10/10 03:46:03;;;;;;;15.25;10.27;;;;;;;;;;5001762;28;20052;-61
2021/10/10 03:48:47;;;;;;;13.85;8.57;;;;;;;;;;5008818;28;20059;-66
2021/10/10 03:51:31;;;;;;;15.15;9.48;;;;;;;;;;5000106;28;20050;-67
2021/10/10 03:56:59;;;;;;;16.55;9.25;;;;;;;;;;4998057;28;20052;-69
2021/10/10 03:59:43;;;;;;;16.27;10.20;;;;;;;;;;5004474;28;20296;-69
2021/10/10 04:02:27;;;;;;;16.30;9.77;;;;;;;;;;5004075;28;20535;-68
2021/10/10 04:08:07;;;;;;;17.83;10.23;;;;;;;;;;4998316;28;20061;-62
2021/10/10 04:10:51;;;;;;;16.30;9.90;;;;;;;;;;5004520;28;20087;-64
2021/10/10 04:13:35;;;;;;;13.05;9.45;;;;;;;;;;4999970;28;20142;-62
2021/10/10 04:16:19;;;;;;;14.52;10.65;;;;;;;;;;4994568;28;20109;-60
2021/10/10 04:19:03;;;;;;;16.88;9.85;;;;;;;;;;4993141;28;20129;-60
2021/10/10 04:21:47;;;;;;;15.85;9.65;;;;;;;;;;4995096;28;20053;-60
2021/10/10 04:24:31;;;;;;;15.43;10.50;;;;;;;;;;5000755;28;20405;-69
2021/10/10 04:27:15;;;;;;;16.10;9.93;;;;;;;;;;4998226;28;20832;-68
2021/10/10 04:29:59;;;;;;;17.30;9.73;;;;;;;;;;5002239;28;20132;-68
2021/10/10 04:32:43;;;;;;;18.42;9.27;;;;;;;;;;5000952;28;20217;-67
2021/10/10 04:35:27;;;;;;;16.70;9.13;;;;;;;;;;4994752;28;20448;-68
2021/10/10 04:38:11;;;;;;;16.10;9.20;;;;;;;;;;4993599;28;20032;-69
2021/10/10 04:40:54;;;;;;;15.60;9.55;;;;;;;;;;4993162;28;20099;-69
2021/10/10 04:43:38;;;;;;;14.43;9.77;;;;;;;;;;4995545;28;20084;-63
2021/10/10 04:46:22;;;;;;;13.93;9.85;;;;;;;;;;5004506;28;20421;-60
2021/10/10 04:49:06;;;;;;;13.60;9.07;;;;;;;;;;5002825;28;20405;-62
2021/10/10 04:51:50;;;;;;;15.02;9.60;;;;;;;;;;5000980;28;20064;-62
2021/10/10 04:54:34;;;;;;;16.42;9.82;;;;;;;;;;5002935;28;20076;-61
2021/10/10 04:57:18;;;;;;;13.43;9.52;;;;;;;;;;5005222;28;20096;-69
2021/10/10 05:00:03;;;;;;;16.73;9.10;;;;;;;;;;5005469;28;20037;-62
2021/10/10 05:02:47;;;;;;;21.20;10.55;;;;;;;;;;4995505;28;20037;-66
2021/10/10 05:05:31;;;;;;;13.75;9.25;;;;;;;;;;5012739;28;20101;-66
2021/10/10 05:08:15;;;;;;;14.75;9.93;;;;;;;;;;5010065;28;20033;-66
2021/10/10 05:10:59;;;;;;;18.33;9.77;;;;;;;;;;5006265;28;20041;-64
2021/10/10 05:13:43;;;;;;;13.23;8.75;;;;;;;;;;4997745;28;20057;-66
2021/10/10 05:16:27;;;;;;;20.20;10.85;;;;;;;;;;4993147;28;20072;-61
2021/10/10 05:19:11;;;;;;;13.27;8.52;;;;;;;;;;5005066;28;20539;-66
2021/10/10 05:21:55;;;;;;;16.35;9.68;;;;;;;;;;5008082;28;20416;-66
2021/10/10 05:24:39;;;;;;;16.10;10.52;;;;;;;;;;5009546;28;20029;-66
2021/10/10 05:27:23;;;;;;;14.98;10.43;;;;;;;;;;5005750;28;20549;-65
2021/10/10 05:30:07;;;;;;;17.65;10.30;;;;;;;;;;5000434;28;20072;-64
2021/10/10 05:32:51;;;;;;;15.27;10.05;;;;;;;;;;5004596;28;20121;-66
2021/10/10 05:35:36;;;;;;;15.35;10.15;;;;;;;;;;5006328;28;20087;-68
2021/10/10 05:38:20;;;;;;;17.83;10.55;;;;;;;;;;5010567;28;20166;-69
2021/10/10 05:41:04;;;;;;;15.23;8.77;;;;;;;;;;4998442;28;20035;-70
2021/10/10 05:43:47;;;;;;;15.32;9.93;;;;;;;;;;4995744;28;20072;-70
2021/10/10 05:46:31;;;;;;;16.02;10.35;;;;;;;;;;4999640;28;20533;-68
2021/10/10 05:49:15;;;;;;;16.63;10.45;;;;;;;;;;4993234;28;20516;-69
2021/10/10 05:51:59;;;;;;;17.40;9.93;;;;;;;;;;5011175;28;20385;-70
2021/10/10 05:54:43;;;;;;;14.43;9.40;;;;;;;;;;5009528;28;20060;-69
2021/10/10 05:57:43;;;;;;;17.23;10.48;;;;;;;;;;5003786;28;20623;-69
2021/10/10 06:00:26;;;;;;;16.30;9.32;;;;;;;;;;5015354;28;20401;-70
2021/10/10 06:03:11;;;;;;;16.77;10.38;;;;;;;;;;5008400;28;20551;-69
2021/10/10 06:05:54;;;;;;;17.48;11.23;;;;;;;;;;4996477;28;20500;-70
2021/10/10 06:08:38;;;;;;;19.35;10.93;;;;;;;;;;5004705;28;20117;-69
2021/10/10 06:11:23;;;;;;;18.02;11.50;;;;;;;;;;5005911;28;20028;-61
2021/10/10 06:14:06;;;;;;;16.13;10.18;;;;;;;;;;5010092;28;20125;-66
2021/10/10 06:16:50;;;;;;;18.33;10.35;;;;;;;;;;5002208;28;20041;-69
2021/10/10 06:19:37;;;;;;;16.33;10.13;;;;;;;;;;4998234;28;20025;-68
2021/10/10 06:22:21;;;;;;;15.93;10.30;;;;;;;;;;4999072;28;20105;-70
2021/10/10 06:25:05;;;;;;;15.75;10.40;;;;;;;;;;5004694;28;20025;-69
2021/10/10 06:27:49;;;;;;;16.75;10.25;;;;;;;;;;4998686;28;20038;-68
2021/10/10 06:30:33;;;;;;;17.33;11.48;;;;;;;;;;5005394;28;20061;-67
2021/10/10 06:33:17;;;;;;;16.52;10.27;;;;;;;;;;5008432;28;20104;-69
2021/10/10 06:36:01;;;;;;;14.02;9.57;;;;;;;;;;5012396;28;20048;-70
2021/10/10 06:38:45;;;;;;;22.90;14.60;;;;;;;;;;4999320;28;20460;-71
2021/10/10 06:41:29;;;;;;;20.30;13.93;;;;;;;;;;5016591;28;20056;-71
2021/10/10 06:44:13;;;;;;;16.02;11.13;;;;;;;;;;5004151;28;20081;-70
2021/10/10 06:46:57;;;;;;;17.65;10.75;;;;;;;;;;4996382;28;20032;-69
2021/10/10 06:49:41;;;;;;;17.23;10.73;;;;;;;;;;5003270;28;20083;-69
2021/10/10 06:52:25;;;;;;;17.25;11.38;;;;;;;;;;5002757;28;20029;-68
2021/10/10 06:55:09;;;;;;;18.33;11.13;;;;;;;;;;5010129;28;20036;-68
2021/10/10 06:57:53;;;;;;;16.15;10.80;;;;;;;;;;5012890;28;20052;-68
2021/10/10 07:00:37;;;;;;;17.55;11.32;;;;;;;;;;5001985;28;20621;-70
2021/10/10 07:03:21;;;;;;;18.00;10.90;;;;;;;;;;5000880;28;20041;-67
2021/10/10 07:06:05;;;;;;;17.00;10.77;;;;;;;;;;5000958;28;20495;-69
2021/10/10 07:08:50;;;;;;;16.80;11.05;;;;;;;;;;5002132;28;20025;-62
2021/10/10 07:11:33;;;;;;;17.10;11.65;;;;;;;;;;5000766;28;20053;-71
2021/10/10 07:14:17;;;;;;;21.70;12.80;;;;;;;;;;5003247;28;20107;-72
2021/10/10 07:17:01;;;;;;;29.45;20.45;;;;;;;;;;5000863;28;20080;-72
2021/10/10 07:19:51;;;;;;;22.13;15.02;;;;;;;;;;4998072;28;20113;-68
2021/10/10 07:25:26;;;;;;;23.02;13.27;;;;;;;;;;4996350;28;20026;-60
2021/10/10 07:28:10;;;;;;;19.85;12.52;;;;;;;;;;5001988;28;20037;-70
2021/10/10 07:30:54;;;;;;;20.15;13.45;;;;;;;;;;4999242;28;20656;-69
2021/10/10 07:33:40;;;;;;;17.55;12.93;;;;;;;;;;5008391;28;20395;-68
2021/10/10 07:36:24;;;;;;;18.08;11.82;;;;;;;;;;5006350;28;20068;-67
2021/10/10 07:39:07;;;;;;;19.88;12.88;;;;;;;;;;5001512;28;20157;-70
2021/10/10 07:41:54;;;;;;;17.08;12.68;;;;;;;;;;5001347;28;20444;-68
2021/10/10 07:44:41;;;;;;;17.42;12.45;;;;;;;;;;5014333;28;20371;-67
2021/10/10 07:50:10;;;;;;;23.63;15.25;;;;;;;;;;5007707;28;20389;-67
2021/10/10 07:52:53;;;;;;;21.88;14.13;;;;;;;;;;5005699;28;20093;-69
2021/10/10 07:55:38;;;;;;;22.98;15.93;;;;;;;;;;5001504;28;20037;-60
2021/10/10 07:58:22;;;;;;;24.77;15.10;;;;;;;;;;5000349;28;20033;-60
2021/10/10 08:01:06;;;;;;;21.10;15.32;;;;;;;;;;4998381;28;20120;-61
2021/10/10 08:03:50;;;;;;;22.20;14.73;;;;;;;;;;5002447;28;20454;-61
2021/10/10 08:06:33;;;;;;;122.75;83.20;;;;;;;;;;5004868;28;20488;-65
2021/10/10 08:09:18;;;;;;;38.35;22.17;;;;;;;;;;4999794;28;20089;-64
2021/10/10 08:12:02;;;;;;;21.80;12.57;;;;;;;;;;5010419;28;20589;-64
2021/10/10 08:14:46;;;;;;;22.55;14.23;;;;;;;;;;5005282;28;20036;-65
2021/10/10 08:17:30;;;;;;;19.80;13.85;;;;;;;;;;5013561;28;20029;-62
2021/10/10 08:20:14;;;;;;;20.30;14.85;;;;;;;;;;5008706;28;20024;-66
2021/10/10 08:22:58;;;;;;;20.40;13.85;;;;;;;;;;4999565;28;20080;-60
2021/10/10 08:25:42;;;;;;;20.33;13.27;;;;;;;;;;5006217;28;20099;-60
2021/10/10 08:28:26;;;;;;;19.52;13.75;;;;;;;;;;5004447;28;20044;-60
2021/10/10 08:31:10;;;;;;;20.15;12.60;;;;;;;;;;5003678;28;20032;-62
2021/10/10 08:33:54;;;;;;;22.40;14.50;;;;;;;;;;5006215;28;20025;-58
2021/10/10 08:36:37;;;;;;;18.17;12.95;;;;;;;;;;4999429;28;20041;-58
2021/10/10 08:39:24;;;;;;;19.80;13.73;;;;;;;;;;5009436;28;20080;-62
2021/10/10 08:42:10;;;;;;;19.70;12.43;;;;;;;;;;5005096;28;20085;-61
2021/10/10 08:45:00;;;;;;;21.77;14.10;;;;;;;;;;4994201;28;20069;-61
2021/10/10 08:47:45;;;;;;;20.48;13.68;;;;;;;;;;5003572;28;20068;-61
2021/10/10 08:50:29;;;;;;;17.92;12.70;;;;;;;;;;5008364;28;20020;-63
2021/10/10 08:53:17;;;;;;;17.88;12.48;;;;;;;;;;4998217;28;20397;-61
2021/10/10 08:56:01;;;;;;;20.75;13.10;;;;;;;;;;4999857;28;20084;-60
2021/10/10 08:58:46;;;;;;;29.40;21.00;;;;;;;;;;5003166;28;20185;-64
2021/10/10 09:01:33;;;;;;;20.27;14.35;;;;;;;;;;5010480;28;20099;-61
2021/10/10 09:04:17;;;;;;;24.85;13.23;;;;;;;;;;5007634;28;20419;-60
2021/10/10 09:07:02;;;;;;;21.55;13.45;;;;;;;;;;4999503;28;20040;-61
2021/10/10 09:09:46;;;;;;;16.02;12.20;;;;;;;;;;4995931;28;20508;-61
2021/10/10 09:12:30;;;;;;;21.75;13.75;;;;;;;;;;5006785;28;20096;-60
2021/10/10 09:15:18;;;;;;;23.00;12.43;;;;;;;;;;5010995;28;20386;-60
2021/10/10 09:18:03;;;;;;;16.95;12.30;;;;;;;;;;5001883;28;20033;-60
2021/10/10 09:20:48;;;;;;;23.65;12.88;;;;;;;;;;5005466;28;20035;-63
2021/10/10 09:23:33;;;;;;;18.55;12.40;;;;;;;;;;5007131;28;20098;-60
2021/10/10 09:26:18;;;;;;;21.23;12.55;;;;;;;;;;5000774;28;20083;-59
2021/10/10 09:29:01;;;;;;;20.02;12.68;;;;;;;;;;5007549;28;20028;-61
2021/10/10 09:31:45;;;;;;;18.48;12.43;;;;;;;;;;4994312;28;20092;-63
2021/10/10 09:34:29;;;;;;;20.98;13.18;;;;;;;;;;5004089;28;20182;-59
2021/10/10 09:37:33;;;;;;;30.52;19.13;;;;;;;;;;4995771;28;20281;-63
2021/10/10 09:40:28;;;;;;;18.05;12.00;;;;;;;;;;5008921;28;20084;-63
2021/10/10 09:43:12;;;;;;;20.88;12.95;;;;;;;;;;5009116;28;20087;-59
2021/10/10 09:45:58;;;;;;;21.08;12.70;;;;;;;;;;5007377;28;20088;-61
2021/10/10 09:48:43;;;;;;;19.45;11.77;;;;;;;;;;4995939;28;20041;-61
2021/10/10 09:51:31;;;;;;;17.95;11.63;;;;;;;;;;5002954;28;20417;-65
2021/10/10 09:54:15;;;;;;;17.73;11.30;;;;;;;;;;5009508;28;20093;-67
2021/10/10 09:57:04;;;;;;;16.27;10.98;;;;;;;;;;5007201;28;20118;-61
2021/10/10 09:59:48;;;;;;;18.13;10.30;;;;;;;;;;5004302;28;20504;-58
2021/10/10 10:02:42;;;;;;;15.15;10.43;;;;;;;;;;5004225;28;20040;-60
2021/10/10 10:05:30;;;;;;;14.93;10.23;;;;;;;;;;5001271;28;20049;-56
2021/10/10 10:08:14;;;;;;;18.10;11.27;;;;;;;;;;5004685;28;20041;-57
2021/10/10 10:10:58;;;;;;;14.90;10.70;;;;;;;;;;5005413;28;20193;-61
2021/10/10 10:13:43;;;;;;;18.33;10.13;;;;;;;;;;5002423;28;20068;-65
2021/10/10 10:16:28;;;;;;;17.60;9.90;;;;;;;;;;5006825;28;20021;-65
2021/10/10 10:19:16;;;;;;;14.65;9.95;;;;;;;;;;5005395;28;20025;-65
2021/10/10 10:22:00;;;;;;;15.50;10.85;;;;;;;;;;5003140;28;20045;-65
2021/10/10 10:24:45;;;;;;;17.85;10.52;;;;;;;;;;5007601;28;20025;-63
2021/10/10 10:27:29;;;;;;;14.75;10.00;;;;;;;;;;5004460;28;20021;-64
2021/10/10 10:30:13;;;;;;;17.27;11.52;;;;;;;;;;4998968;28;20076;-60
2021/10/10 10:32:57;;;;;;;16.10;8.90;;;;;;;;;;5006051;28;20111;-60
2021/10/10 10:35:42;;;;;;;17.23;10.18;;;;;;;;;;4997686;28;20489;-61
2021/10/10 10:38:58;;;;;;;14.43;9.23;;;;;;;;;;5004473;28;20512;-59
2021/10/10 10:41:46;;;;;;;14.82;9.93;;;;;;;;;;4983889;28;20049;-62
2021/10/10 10:44:44;;;;;;;16.02;9.25;;;;;;;;;;4997273;28;20029;-61
2021/10/10 10:47:38;;;;;;;17.58;9.77;;;;;;;;;;4992003;28;20085;-62
2021/10/10 10:50:26;;;;;;;17.23;9.35;;;;;;;;;;4999893;28;20179;-65
2021/10/10 10:53:13;;;;;;;18.05;11.15;;;;;;;;;;5006427;28;20080;-64
